Time;durP1;ratioP1;P1;durP2;ratioP2;P2;SDS_P1;SDS_P2;PMS_P1;PMS_P2;Temp;Humidity;BMP_temperature;BMP_pressure;BME280_temperature;BME280_humidity;BME280_pressure;Samples;Min_cycle;Max_cycle;Signal;HPM_P1;HPM_P2
2020/12/06 00:01:24;;;;;;;30.00;16.83;;;2.70;99.90;;;;;;5043140;28;20202;-63
2020/12/06 00:03:50;;;;;;;30.00;18.37;;;2.70;99.90;;;;;;5052758;28;20179;-64
2020/12/06 00:06:22;;;;;;;29.07;18.23;;;2.70;99.90;;;;;;5050631;28;20181;-63
2020/12/06 00:08:49;;;;;;;28.83;17.00;;;2.70;99.90;;;;;;5052285;28;20569;-64
2020/12/06 00:11:19;;;;;;;31.13;17.70;;;2.80;99.90;;;;;;5050453;28;20179;-64
2020/12/06 00:13:45;;;;;;;24.77;16.87;;;2.80;99.90;;;;;;5051707;28;20216;-63
2020/12/06 00:16:15;;;;;;;28.03;16.43;;;2.80;99.90;;;;;;5032527;28;20536;-64
2020/12/06 00:18:43;;;;;;;25.80;16.80;;;2.80;99.90;;;;;;5032232;28;20191;-63
2020/12/06 00:21:16;;;;;;;25.53;16.30;;;2.70;99.90;;;;;;5051383;28;20533;-64
2020/12/06 00:23:42;;;;;;;30.13;17.53;;;2.70;99.90;;;;;;5037573;28;20229;-64
2020/12/06 00:26:08;;;;;;;27.77;17.37;;;2.70;99.90;;;;;;5032321;28;20648;-64
2020/12/06 00:28:34;;;;;;;26.20;16.23;;;2.70;99.90;;;;;;5044551;28;20400;-64
2020/12/06 00:31:00;;;;;;;28.63;15.97;;;2.70;99.90;;;;;;5051743;28;20539;-64
2020/12/06 00:33:26;;;;;;;27.60;15.87;;;2.70;99.90;;;;;;5040987;28;20683;-64
2020/12/06 00:35:52;;;;;;;26.50;16.10;;;2.60;99.90;;;;;;5032047;28;20229;-64
2020/12/06 00:38:18;;;;;;;26.67;16.53;;;2.50;99.90;;;;;;5040957;28;20691;-64
2020/12/06 00:40:44;;;;;;;27.27;17.50;;;2.60;99.90;;;;;;5051579;28;20174;-64
2020/12/06 00:43:09;;;;;;;28.23;17.03;;;2.60;99.90;;;;;;5044508;28;20215;-64
2020/12/06 00:45:35;;;;;;;28.77;17.53;;;2.60;99.90;;;;;;5031949;28;20175;-64
2020/12/06 00:48:00;;;;;;;27.57;16.63;;;2.60;99.90;;;;;;5036819;28;20214;-64
2020/12/06 00:50:26;;;;;;;30.33;16.83;;;2.60;99.90;;;;;;5051522;28;20175;-64
2020/12/06 00:52:52;;;;;;;30.00;18.03;;;2.60;99.90;;;;;;5047882;28;20207;-64
2020/12/06 00:55:17;;;;;;;28.40;17.93;;;2.70;99.90;;;;;;5014037;28;20205;-64
2020/12/06 00:57:43;;;;;;;26.33;16.93;;;2.70;99.90;;;;;;5031011;28;20211;-63
2020/12/06 01:00:10;;;;;;;27.17;16.33;;;2.70;99.90;;;;;;5028878;28;20577;-64
2020/12/06 01:02:36;;;;;;;25.77;16.97;;;2.70;99.90;;;;;;5032359;28;20180;-64
2020/12/06 01:05:03;;;;;;;24.33;15.70;;;2.70;99.90;;;;;;5031578;28;20186;-64
2020/12/06 01:07:32;;;;;;;26.23;16.73;;;2.70;99.90;;;;;;5031891;28;20546;-64
2020/12/06 01:09:58;;;;;;;27.87;17.83;;;2.70;99.90;;;;;;5051574;28;20175;-64
2020/12/06 01:12:24;;;;;;;27.73;16.83;;;2.70;99.90;;;;;;5034181;28;20218;-64
2020/12/06 01:14:49;;;;;;;31.47;18.07;;;2.70;99.90;;;;;;5030686;28;20659;-64
2020/12/06 01:17:15;;;;;;;25.17;15.90;;;2.60;99.90;;;;;;5028434;28;20262;-64
2020/12/06 01:19:41;;;;;;;27.10;17.37;;;2.60;99.90;;;;;;5051342;28;20300;-64
2020/12/06 01:22:07;;;;;;;31.20;17.63;;;2.60;99.90;;;;;;5037727;28;20663;-64
2020/12/06 01:24:32;;;;;;;27.73;17.67;;;2.60;99.90;;;;;;5031390;28;20167;-64
2020/12/06 01:26:58;;;;;;;34.27;17.50;;;2.60;99.90;;;;;;5042399;28;20644;-64
2020/12/06 01:29:23;;;;;;;28.00;17.20;;;2.70;99.90;;;;;;5051194;28;20195;-64
2020/12/06 01:31:49;;;;;;;30.07;16.30;;;2.60;99.90;;;;;;5049232;28;20198;-64
2020/12/06 01:34:15;;;;;;;27.87;16.70;;;2.60;99.90;;;;;;5051160;28;20581;-64
2020/12/06 01:36:42;;;;;;;29.47;17.53;;;2.50;99.90;;;;;;5042213;28;20621;-64
2020/12/06 01:39:08;;;;;;;29.40;17.50;;;2.50;99.90;;;;;;5031195;28;20187;-64
2020/12/06 01:41:34;;;;;;;31.03;17.47;;;2.50;99.90;;;;;;5038395;28;20558;-64
2020/12/06 01:44:00;;;;;;;27.90;16.17;;;2.40;99.90;;;;;;5051183;28;20194;-64
2020/12/06 01:46:26;;;;;;;29.43;15.80;;;2.40;99.90;;;;;;5049599;28;20175;-64
2020/12/06 01:48:53;;;;;;;25.07;14.60;;;2.50;99.90;;;;;;5050797;28;20229;-64
2020/12/06 01:51:21;;;;;;;30.27;17.50;;;2.40;99.90;;;;;;5049909;28;20183;-64
2020/12/06 01:53:48;;;;;;;28.53;16.33;;;2.30;99.90;;;;;;5051023;28;20194;-64
2020/12/06 01:56:14;;;;;;;25.23;16.20;;;2.30;99.90;;;;;;5044071;28;20527;-64
2020/12/06 01:58:40;;;;;;;31.10;16.50;;;2.30;99.90;;;;;;5030979;28;20210;-64
2020/12/06 02:01:10;;;;;;;27.20;16.03;;;2.30;99.90;;;;;;5046959;28;20171;-64
2020/12/06 02:03:36;;;;;;;28.33;16.13;;;2.20;99.90;;;;;;5050130;28;20171;-64
2020/12/06 02:06:06;;;;;;;31.00;17.13;;;2.20;99.90;;;;;;5035301;28;20219;-64
2020/12/06 02:08:33;;;;;;;29.53;15.80;;;2.20;99.90;;;;;;5030841;28;20731;-64
2020/12/06 02:10:58;;;;;;;32.67;16.87;;;2.20;99.90;;;;;;5044009;28;20516;-64
2020/12/06 02:13:24;;;;;;;29.63;17.33;;;2.20;99.90;;;;;;5046545;28;20210;-64
2020/12/06 02:15:51;;;;;;;27.03;16.33;;;2.20;99.90;;;;;;5031016;28;20690;-64
2020/12/06 02:18:17;;;;;;;27.70;16.33;;;2.20;99.90;;;;;;5033056;28;20270;-64
2020/12/06 02:20:43;;;;;;;27.33;15.63;;;2.30;99.90;;;;;;5050391;28;20175;-64
2020/12/06 02:23:09;;;;;;;27.73;15.73;;;2.30;99.90;;;;;;5049993;28;20185;-64
2020/12/06 02:25:39;;;;;;;25.93;15.50;;;2.30;99.90;;;;;;5030959;28;20640;-64
2020/12/06 02:28:09;;;;;;;26.63;16.23;;;2.30;99.90;;;;;;5041622;28;20228;-63
2020/12/06 02:30:35;;;;;;;26.83;16.03;;;2.40;99.90;;;;;;5052459;28;20201;-63
2020/12/06 02:33:01;;;;;;;26.57;15.87;;;2.40;99.90;;;;;;5047751;28;20738;-63
2020/12/06 02:35:27;;;;;;;28.07;16.27;;;2.40;99.90;;;;;;5034577;28;20167;-63
2020/12/06 02:37:53;;;;;;;25.13;15.70;;;2.40;99.90;;;;;;5038718;28;20204;-63
2020/12/06 02:40:18;;;;;;;28.33;16.30;;;2.40;99.90;;;;;;5055491;28;20185;-63
2020/12/06 02:42:44;;;;;;;27.07;15.40;;;2.40;99.90;;;;;;5052145;28;20269;-63
2020/12/06 02:45:09;;;;;;;26.77;15.10;;;2.40;99.90;;;;;;5054280;28;20175;-63
2020/12/06 02:47:35;;;;;;;28.50;17.37;;;2.40;99.90;;;;;;5048279;28;20230;-63
2020/12/06 02:50:01;;;;;;;25.43;14.93;;;2.50;99.90;;;;;;5016884;28;20228;-63
2020/12/06 02:52:26;;;;;;;28.33;17.00;;;2.50;99.90;;;;;;5038653;28;20195;-63
2020/12/06 02:54:52;;;;;;;27.13;16.47;;;2.50;99.90;;;;;;5054442;28;20179;-63
2020/12/06 02:57:18;;;;;;;26.43;16.87;;;2.50;99.90;;;;;;5051040;28;20655;-63
2020/12/06 02:59:43;;;;;;;27.50;17.03;;;2.50;99.90;;;;;;5033951;28;20653;-63
2020/12/06 03:02:09;;;;;;;30.60;18.07;;;2.50;99.90;;;;;;5048784;28;20667;-63
2020/12/06 03:04:35;;;;;;;33.00;19.00;;;2.40;99.90;;;;;;5053989;28;20177;-63
2020/12/06 03:07:01;;;;;;;33.43;17.90;;;2.40;99.90;;;;;;5040009;28;20187;-63
2020/12/06 03:09:26;;;;;;;29.83;18.03;;;2.50;99.90;;;;;;5033790;28;20191;-63
2020/12/06 03:11:52;;;;;;;32.27;17.97;;;2.50;99.90;;;;;;5043708;28;20585;-63
2020/12/06 03:14:18;;;;;;;30.97;18.97;;;2.60;99.90;;;;;;5053672;28;20162;-63
2020/12/06 03:16:43;;;;;;;30.87;18.43;;;2.70;99.90;;;;;;5043413;28;20174;-63
2020/12/06 03:19:09;;;;;;;28.80;18.00;;;2.70;99.90;;;;;;5033331;28;20187;-63
2020/12/06 03:21:35;;;;;;;30.20;18.20;;;2.80;99.90;;;;;;5041022;28;20213;-63
2020/12/06 03:24:00;;;;;;;36.10;18.77;;;2.80;99.90;;;;;;5053402;28;20175;-63
2020/12/06 03:26:26;;;;;;;31.57;17.73;;;2.80;99.90;;;;;;5051832;28;20586;-63
2020/12/06 03:28:52;;;;;;;30.37;18.07;;;2.70;99.90;;;;;;5053052;28;20197;-63
2020/12/06 03:31:17;;;;;;;28.00;17.90;;;2.70;99.90;;;;;;5048709;28;20278;-63
2020/12/06 03:33:43;;;;;;;30.53;17.70;;;2.80;99.90;;;;;;5033173;28;20226;-63
2020/12/06 03:36:09;;;;;;;35.57;19.57;;;2.80;99.90;;;;;;5035388;28;20207;-63
2020/12/06 03:38:35;;;;;;;36.93;19.80;;;2.90;99.90;;;;;;5053087;28;20198;-63
2020/12/06 03:41:00;;;;;;;34.20;18.10;;;2.90;99.90;;;;;;5051952;28;20525;-63
2020/12/06 03:43:26;;;;;;;31.23;17.83;;;2.90;99.90;;;;;;5033341;28;20222;-63
2020/12/06 03:45:51;;;;;;;32.73;19.03;;;3.00;99.90;;;;;;5032960;28;20203;-63
2020/12/06 03:48:17;;;;;;;31.00;18.37;;;3.00;99.90;;;;;;5051251;28;20214;-63
2020/12/06 03:50:43;;;;;;;30.87;18.90;;;2.90;99.90;;;;;;5052495;28;20225;-63
2020/12/06 03:53:08;;;;;;;33.60;18.20;;;2.90;99.90;;;;;;5035961;28;20209;-63
2020/12/06 03:55:34;;;;;;;32.13;18.97;;;2.90;99.90;;;;;;5044821;28;20182;-63
2020/12/06 03:57:59;;;;;;;31.93;17.20;;;2.80;99.90;;;;;;5053465;28;20187;-63
2020/12/06 04:00:25;;;;;;;36.17;19.47;;;2.80;99.90;;;;;;5042084;28;20190;-63
2020/12/06 04:02:51;;;;;;;29.90;18.63;;;2.90;99.90;;;;;;5032784;28;20190;-63
2020/12/06 04:05:21;;;;;;;31.10;19.00;;;2.90;99.90;;;;;;5040814;28;20193;-63
2020/12/06 04:07:48;;;;;;;34.17;19.17;;;2.90;99.90;;;;;;5052437;28;20207;-63
2020/12/06 04:10:14;;;;;;;30.57;18.77;;;2.90;99.90;;;;;;5045411;28;20176;-63
2020/12/06 04:12:39;;;;;;;30.80;19.17;;;2.90;99.90;;;;;;5032701;28;20246;-63
2020/12/06 04:15:05;;;;;;;28.53;16.97;;;2.90;99.90;;;;;;5052458;28;20175;-63
2020/12/06 04:17:31;;;;;;;26.90;17.27;;;2.80;99.90;;;;;;5052331;28;20191;-63
2020/12/06 04:19:57;;;;;;;28.90;16.93;;;2.80;99.90;;;;;;5033079;28;20183;-63
2020/12/06 04:22:23;;;;;;;27.33;16.50;;;2.80;99.90;;;;;;5033654;28;20179;-63
2020/12/06 04:24:48;;;;;;;27.50;16.77;;;2.70;99.90;;;;;;5051993;28;20212;-63
2020/12/06 04:27:14;;;;;;;31.63;16.47;;;2.70;99.90;;;;;;5051697;28;20191;-63
2020/12/06 04:29:39;;;;;;;29.13;15.80;;;2.70;99.90;;;;;;5032367;28;20637;-63
2020/12/06 04:32:05;;;;;;;27.97;16.83;;;2.70;99.90;;;;;;5031870;28;20235;-63
2020/12/06 04:34:31;;;;;;;26.10;17.00;;;2.60;99.90;;;;;;5050125;28;20178;-63
2020/12/06 04:36:56;;;;;;;32.97;16.87;;;2.70;99.90;;;;;;5051771;28;20599;-63
2020/12/06 04:39:22;;;;;;;30.80;16.57;;;2.70;99.90;;;;;;5035519;28;20208;-63
2020/12/06 04:41:47;;;;;;;31.13;17.03;;;2.70;99.90;;;;;;5031735;28;20245;-63
2020/12/06 04:44:13;;;;;;;28.37;16.93;;;2.70;99.90;;;;;;5046492;28;20524;-63
2020/12/06 04:46:39;;;;;;;31.17;17.07;;;2.70;99.90;;;;;;5051909;28;20553;-63
2020/12/06 04:49:05;;;;;;;29.40;17.73;;;2.70;99.90;;;;;;5387050;22;20223;-62
2020/12/06 04:51:41;;;;;;;32.57;18.40;;;2.70;99.90;;;;;;5011853;28;20446;-65
2020/12/06 04:54:08;;;;;;;31.13;16.90;;;2.80;99.90;;;;;;5010521;28;20189;-65
2020/12/06 04:56:36;;;;;;;30.87;16.87;;;2.70;99.90;;;;;;5011924;28;20172;-66
2020/12/06 04:59:02;;;;;;;32.27;18.53;;;2.70;99.90;;;;;;5011878;28;20188;-66
2020/12/06 05:01:38;;;;;;;30.67;19.53;;;2.70;99.90;;;;;;5011823;28;20168;-66
2020/12/06 05:04:13;;;;;;;33.20;19.40;;;2.80;99.90;;;;;;5012091;28;20534;-65
2020/12/06 05:06:39;;;;;;;29.97;17.93;;;2.90;99.90;;;;;;5011799;28;20176;-66
2020/12/06 05:09:10;;;;;;;30.17;18.37;;;3.00;99.90;;;;;;4994004;28;20192;-63
2020/12/06 05:11:37;;;;;;;26.33;16.60;;;3.00;99.90;;;;;;5010586;28;20176;-63
2020/12/06 05:14:06;;;;;;;25.37;15.40;;;3.10;99.90;;;;;;5011940;28;20172;-64
2020/12/06 05:16:33;;;;;;;26.10;15.30;;;3.00;99.90;;;;;;5011716;28;20546;-65
2020/12/06 05:19:00;;;;;;;22.83;15.27;;;3.00;99.90;;;;;;5011296;28;20291;-66
2020/12/06 05:21:39;;;;;;;24.40;15.47;;;3.10;99.90;;;;;;5011699;28;20253;-63
2020/12/06 05:24:05;;;;;;;28.50;16.60;;;3.10;99.90;;;;;;5011602;28;20218;-66
2020/12/06 05:26:31;;;;;;;27.53;15.83;;;3.20;99.90;;;;;;5011836;28;20564;-66
2020/12/06 05:28:58;;;;;;;26.27;15.93;;;3.20;99.90;;;;;;5011316;28;20202;-68
2020/12/06 05:31:24;;;;;;;31.43;15.43;;;3.30;99.90;;;;;;4991010;28;20263;-62
2020/12/06 05:33:51;;;;;;;29.07;17.27;;;3.20;99.90;;;;;;4977699;28;20211;-64
2020/12/06 05:36:17;;;;;;;24.43;15.33;;;3.20;99.90;;;;;;5011714;28;20168;-65
2020/12/06 05:38:43;;;;;;;28.53;16.50;;;3.30;99.90;;;;;;5011242;28;20266;-64
2020/12/06 05:41:09;;;;;;;26.63;16.53;;;3.30;99.90;;;;;;4993573;28;20259;-64
2020/12/06 05:43:36;;;;;;;25.53;16.87;;;3.30;99.90;;;;;;5011692;28;20658;-64
2020/12/06 05:46:09;;;;;;;24.90;15.73;;;3.30;99.90;;;;;;5011215;28;20210;-64
2020/12/06 05:48:35;;;;;;;31.07;17.43;;;3.20;99.90;;;;;;5011322;28;20301;-64
2020/12/06 05:51:02;;;;;;;24.83;15.67;;;3.20;99.90;;;;;;4993379;28;20230;-63
2020/12/06 05:53:29;;;;;;;25.00;16.73;;;3.20;99.90;;;;;;5011322;28;20235;-64
2020/12/06 05:56:16;;;;;;;25.83;15.73;;;3.20;99.90;;;;;;5011395;28;20176;-65
2020/12/06 05:58:46;;;;;;;25.00;14.90;;;3.20;99.90;;;;;;5010958;28;20196;-64
2020/12/06 06:01:13;;;;;;;26.50;15.60;;;3.20;99.90;;;;;;5010954;28;20157;-64
2020/12/06 06:03:46;;;;;;;33.17;18.60;;;3.20;99.90;;;;;;5011453;28;20176;-63
2020/12/06 06:06:25;;;;;;;56.63;29.93;;;3.20;99.90;;;;;;5014265;28;20172;-64
2020/12/06 06:08:54;;;;;;;37.43;21.33;;;3.30;99.90;;;;;;5014891;28;20671;-64
2020/12/06 06:11:26;;;;;;;32.07;19.33;;;3.30;99.90;;;;;;5013558;28;20780;-64
2020/12/06 06:13:56;;;;;;;29.67;16.47;;;3.30;99.90;;;;;;5014969;28;20196;-63
2020/12/06 06:16:24;;;;;;;26.73;16.30;;;3.30;99.90;;;;;;5014931;28;20176;-64
2020/12/06 06:18:51;;;;;;;27.63;16.17;;;3.30;99.90;;;;;;5014793;28;20231;-64
2020/12/06 06:21:20;;;;;;;28.50;17.43;;;3.30;99.90;;;;;;5014375;28;20172;-64
2020/12/06 06:23:47;;;;;;;28.10;17.03;;;3.30;99.90;;;;;;5014746;28;20180;-64
2020/12/06 06:26:16;;;;;;;25.40;15.90;;;3.40;99.90;;;;;;5014806;28;20168;-65
2020/12/06 06:28:44;;;;;;;22.97;15.17;;;3.40;99.90;;;;;;4995261;28;20303;-63
2020/12/06 06:31:11;;;;;;;27.40;16.63;;;3.40;99.90;;;;;;4994792;28;20267;-64
2020/12/06 06:33:38;;;;;;;29.67;17.00;;;3.30;99.90;;;;;;5013830;28;20211;-64
2020/12/06 06:36:07;;;;;;;31.80;19.37;;;3.30;99.90;;;;;;5014728;28;20179;-65
2020/12/06 06:38:38;;;;;;;30.33;17.30;;;3.20;99.90;;;;;;5014224;28;20192;-65
2020/12/06 06:41:07;;;;;;;27.83;17.40;;;3.30;99.90;;;;;;5014220;28;20665;-65
2020/12/06 06:43:37;;;;;;;28.60;16.70;;;3.30;99.90;;;;;;5014268;28;20267;-66
2020/12/06 06:46:17;;;;;;;31.13;18.53;;;3.30;99.90;;;;;;5014327;28;20653;-64
2020/12/06 06:48:50;;;;;;;29.77;17.83;;;3.30;99.90;;;;;;4996541;28;20215;-64
2020/12/06 06:51:21;;;;;;;30.50;18.33;;;3.30;99.90;;;;;;5013861;28;20231;-63
2020/12/06 06:53:47;;;;;;;26.80;17.77;;;3.30;99.90;;;;;;5014196;28;20490;-65
2020/12/06 06:56:19;;;;;;;27.30;16.83;;;3.10;99.90;;;;;;5014114;28;20182;-65
2020/12/06 06:58:47;;;;;;;27.83;16.83;;;3.10;99.90;;;;;;5014435;28;20203;-64
2020/12/06 07:01:23;;;;;;;31.03;17.23;;;3.10;99.90;;;;;;5013662;28;20180;-65
2020/12/06 07:03:51;;;;;;;28.93;16.67;;;3.00;99.90;;;;;;5014218;28;20175;-64
2020/12/06 07:06:46;;;;;;;26.37;16.90;;;3.00;99.90;;;;;;5013869;28;20188;-65
2020/12/06 07:09:21;;;;;;;26.30;15.57;;;3.00;99.90;;;;;;5013914;28;20632;-64
2020/12/06 07:11:47;;;;;;;26.17;16.07;;;3.00;99.90;;;;;;5012106;28;20186;-68
2020/12/06 07:14:13;;;;;;;26.03;16.57;;;3.00;99.90;;;;;;5013059;28;20188;-62
2020/12/06 07:16:39;;;;;;;22.97;14.80;;;3.10;99.90;;;;;;5013067;28;20190;-62
2020/12/06 07:19:05;;;;;;;26.37;15.37;;;3.10;99.90;;;;;;4995958;28;20203;-63
2020/12/06 07:21:36;;;;;;;25.87;14.80;;;3.00;99.90;;;;;;5013272;28;20585;-64
2020/12/06 07:24:03;;;;;;;24.40;16.70;;;3.10;99.90;;;;;;5013791;28;20180;-65
2020/12/06 07:26:30;;;;;;;25.77;15.57;;;3.10;99.90;;;;;;5013381;28;20223;-63
2020/12/06 07:28:56;;;;;;;20.13;15.00;;;3.10;99.90;;;;;;5013482;28;20271;-65
2020/12/06 07:31:23;;;;;;;29.03;16.77;;;3.00;99.90;;;;;;5012959;28;20360;-64
2020/12/06 07:33:49;;;;;;;25.80;15.23;;;3.00;99.90;;;;;;5013453;28;20266;-63
2020/12/06 07:36:16;;;;;;;24.10;16.27;;;3.10;99.90;;;;;;5013485;28;20183;-64
2020/12/06 07:38:42;;;;;;;26.80;15.67;;;3.10;99.90;;;;;;5013179;28;20192;-64
2020/12/06 07:41:07;;;;;;;24.43;16.13;;;3.20;99.90;;;;;;5012651;28;20176;-64
2020/12/06 07:43:33;;;;;;;26.17;16.13;;;3.20;99.90;;;;;;5013279;28;20548;-63
2020/12/06 07:46:20;;;;;;;31.23;17.90;;;3.20;99.90;;;;;;4995566;28;20196;-63
2020/12/06 07:48:47;;;;;;;35.93;20.67;;;3.10;99.90;;;;;;5012469;28;20212;-64
2020/12/06 07:51:13;;;;;;;32.83;19.37;;;3.20;99.90;;;;;;5012469;28;20322;-64
2020/12/06 07:53:59;;;;;;;30.37;19.00;;;3.20;99.90;;;;;;5012881;28;20214;-63
2020/12/06 07:56:25;;;;;;;34.50;20.37;;;3.20;99.90;;;;;;5013003;28;20179;-63
2020/12/06 07:58:59;;;;;;;26.93;17.70;;;3.30;99.90;;;;;;5012810;28;20574;-64
2020/12/06 08:01:26;;;;;;;28.53;17.40;;;3.30;99.90;;;;;;5012428;28;20226;-64
2020/12/06 08:03:55;;;;;;;25.00;16.53;;;3.30;99.90;;;;;;4994242;28;20187;-63
2020/12/06 08:06:25;;;;;;;28.77;17.90;;;3.40;99.90;;;;;;5011910;28;20208;-64
2020/12/06 08:08:52;;;;;;;23.33;15.77;;;3.50;99.90;;;;;;4993398;28;20670;-63
2020/12/06 08:11:20;;;;;;;26.40;16.97;;;3.50;99.90;;;;;;5006991;28;20180;-64
2020/12/06 08:13:52;;;;;;;25.23;15.40;;;3.60;99.90;;;;;;4994732;28;20219;-62
2020/12/06 08:16:18;;;;;;;22.93;14.87;;;3.60;99.90;;;;;;5012376;28;20658;-64
2020/12/06 08:18:44;;;;;;;27.50;14.97;;;3.60;99.90;;;;;;5012510;28;20200;-64
2020/12/06 08:21:10;;;;;;;27.63;17.07;;;3.60;99.90;;;;;;4994096;28;20238;-65
2020/12/06 08:23:37;;;;;;;27.07;15.33;;;3.70;99.90;;;;;;5012514;28;20181;-64
2020/12/06 08:26:04;;;;;;;27.37;17.43;;;3.80;99.90;;;;;;5012187;28;20546;-63
2020/12/06 08:28:30;;;;;;;29.20;16.20;;;3.90;99.90;;;;;;5011745;28;20223;-64
2020/12/06 08:30:56;;;;;;;21.17;15.47;;;3.80;99.90;;;;;;5011691;28;20298;-64
2020/12/06 08:33:27;;;;;;;24.00;14.57;;;3.80;99.90;;;;;;5012368;28;20728;-64
2020/12/06 08:35:56;;;;;;;23.33;14.73;;;3.80;99.90;;;;;;5011967;28;20531;-65
2020/12/06 08:38:25;;;;;;;25.40;16.90;;;3.70;99.90;;;;;;5012160;28;20188;-65
2020/12/06 08:41:11;;;;;;;24.13;15.67;;;3.60;99.90;;;;;;5011606;28;20180;-65
2020/12/06 08:43:50;;;;;;;29.50;18.60;;;3.70;99.90;;;;;;5012062;28;20176;-65
2020/12/06 08:46:18;;;;;;;25.50;16.53;;;3.80;99.90;;;;;;5012128;28;20188;-66
2020/12/06 08:48:45;;;;;;;24.77;15.70;;;3.80;99.90;;;;;;5011833;28;20225;-66
2020/12/06 08:51:33;;;;;;;28.57;16.30;;;3.90;99.90;;;;;;5011493;28;20188;-64
2020/12/06 08:54:01;;;;;;;28.10;19.07;;;3.90;99.90;;;;;;5011821;28;20239;-63
2020/12/06 08:56:33;;;;;;;30.47;20.97;;;4.00;99.90;;;;;;5011825;28;20542;-65
2020/12/06 08:59:06;;;;;;;40.07;23.33;;;4.10;99.90;;;;;;5011938;28;20196;-65
2020/12/06 09:01:33;;;;;;;27.53;18.23;;;4.20;99.90;;;;;;5011271;28;20179;-66
2020/12/06 09:03:59;;;;;;;26.70;17.07;;;4.20;99.90;;;;;;5011405;28;20192;-65
2020/12/06 09:06:25;;;;;;;21.67;14.90;;;4.20;99.90;;;;;;5011868;28;20176;-65
2020/12/06 09:08:50;;;;;;;21.53;14.50;;;4.30;99.90;;;;;;4993814;28;20207;-65
2020/12/06 09:11:17;;;;;;;20.10;13.47;;;4.30;99.90;;;;;;5011204;28;20202;-63
2020/12/06 09:13:44;;;;;;;20.93;13.80;;;4.30;99.90;;;;;;5011354;28;20235;-65
2020/12/06 09:16:10;;;;;;;21.93;14.27;;;4.50;99.90;;;;;;5011389;28;20176;-65
2020/12/06 09:18:36;;;;;;;19.93;13.90;;;4.70;99.90;;;;;;5011108;28;20592;-65
2020/12/06 09:21:04;;;;;;;17.77;13.07;;;4.80;99.90;;;;;;5011437;28;20176;-64
2020/12/06 09:23:30;;;;;;;17.63;11.67;;;4.80;99.90;;;;;;5011419;28;20742;-65
2020/12/06 09:25:58;;;;;;;18.70;12.17;;;4.70;99.90;;;;;;5011881;28;20267;-65
2020/12/06 09:28:24;;;;;;;20.00;13.07;;;4.60;99.90;;;;;;5011753;28;20207;-64
2020/12/06 09:30:49;;;;;;;17.97;12.77;;;4.70;99.90;;;;;;5009112;28;20571;-65
2020/12/06 09:33:15;;;;;;;17.17;12.73;;;4.70;99.90;;;;;;5011267;28;20289;-67
2020/12/06 09:35:40;;;;;;;16.87;12.67;;;4.70;99.90;;;;;;5010764;28;20171;-63
2020/12/06 09:38:06;;;;;;;20.70;13.27;;;4.80;99.90;;;;;;5011552;28;20188;-65
2020/12/06 09:40:31;;;;;;;16.83;12.37;;;4.80;99.90;;;;;;4996854;28;20524;-65
2020/12/06 09:42:57;;;;;;;17.87;12.20;;;4.80;99.90;;;;;;5014859;28;20180;-65
2020/12/06 09:45:23;;;;;;;20.60;13.90;;;4.80;99.90;;;;;;4994305;28;20172;-64
2020/12/06 09:47:48;;;;;;;19.37;11.77;;;4.80;99.90;;;;;;5013352;28;20199;-65
2020/12/06 09:50:14;;;;;;;18.00;12.73;;;4.70;99.90;;;;;;5004304;28;20612;-65
2020/12/06 09:52:39;;;;;;;23.67;14.20;;;4.70;99.90;;;;;;5014646;28;20215;-66
2020/12/06 09:55:05;;;;;;;18.37;13.73;;;4.70;99.90;;;;;;4997131;28;20184;-62
2020/12/06 09:57:31;;;;;;;18.80;12.27;;;4.80;99.90;;;;;;5013560;28;20180;-65
2020/12/06 09:59:56;;;;;;;18.73;13.13;;;4.80;99.90;;;;;;4998728;28;20196;-62
2020/12/06 10:02:22;;;;;;;18.57;12.90;;;4.90;99.90;;;;;;4995420;28;20256;-66
2020/12/06 10:04:49;;;;;;;20.40;13.93;;;4.90;99.90;;;;;;4997118;28;20703;-65
2020/12/06 10:07:14;;;;;;;20.80;15.37;;;5.10;99.90;;;;;;5000769;28;20231;-65
2020/12/06 10:09:40;;;;;;;17.23;12.73;;;5.20;99.90;;;;;;4995407;28;20200;-65
2020/12/06 10:12:06;;;;;;;18.47;13.77;;;5.30;99.90;;;;;;5012981;28;20181;-66
2020/12/06 10:14:31;;;;;;;18.30;12.60;;;5.50;99.90;;;;;;4994865;28;20176;-65
2020/12/06 10:16:57;;;;;;;14.07;11.50;;;5.60;99.90;;;;;;5014487;28;20196;-66
2020/12/06 10:19:22;;;;;;;15.70;13.07;;;5.60;99.90;;;;;;5014642;28;20188;-65
2020/12/06 10:21:48;;;;;;;15.03;11.83;;;5.70;99.90;;;;;;5013816;28;20242;-66
2020/12/06 10:24:14;;;;;;;15.03;11.20;;;5.90;99.90;;;;;;5014875;28;20180;-64
2020/12/06 10:26:39;;;;;;;13.70;10.63;;;6.10;99.90;;;;;;5003798;28;20195;-64
2020/12/06 10:29:05;;;;;;;14.83;10.57;;;6.10;99.90;;;;;;4995111;28;20200;-63
2020/12/06 10:31:31;;;;;;;16.13;11.47;;;6.20;99.90;;;;;;5002889;28;20191;-65
2020/12/06 10:33:56;;;;;;;14.43;11.33;;;6.00;99.90;;;;;;5012564;28;20219;-65
2020/12/06 10:36:22;;;;;;;16.37;10.63;;;6.10;99.90;;;;;;5014222;28;20172;-65
2020/12/06 10:38:47;;;;;;;15.87;11.37;;;6.10;99.90;;;;;;5014347;28;20184;-64
2020/12/06 10:41:13;;;;;;;15.43;10.27;;;6.10;99.90;;;;;;5013375;28;20176;-65
2020/12/06 10:43:39;;;;;;;21.00;12.43;;;6.10;99.90;;;;;;5012260;28;20238;-66
2020/12/06 10:46:04;;;;;;;16.73;11.23;;;6.10;99.90;;;;;;5013495;28;20552;-65
2020/12/06 10:48:30;;;;;;;15.13;10.60;;;6.10;99.90;;;;;;5036559;22;20724;-65
2020/12/06 10:50:55;;;;;;;16.60;12.33;;;6.00;99.90;;;;;;5013013;28;20176;-63
2020/12/06 10:53:21;;;;;;;15.87;11.27;;;6.10;99.90;;;;;;5013719;28;20200;-63
2020/12/06 10:55:47;;;;;;;16.73;11.37;;;6.10;99.90;;;;;;5012120;28;20172;-63
2020/12/06 10:58:12;;;;;;;15.53;11.60;;;6.20;99.90;;;;;;5013906;28;20187;-63
2020/12/06 11:00:38;;;;;;;17.57;12.20;;;6.10;99.90;;;;;;5014117;28;20255;-64
2020/12/06 11:03:03;;;;;;;15.37;12.27;;;6.10;99.90;;;;;;5012522;28;20641;-64
2020/12/06 11:05:29;;;;;;;14.97;11.20;;;6.10;99.90;;;;;;5013566;28;20212;-65
2020/12/06 11:07:54;;;;;;;15.80;12.50;;;6.10;99.90;;;;;;5013151;28;20254;-63
2020/12/06 11:10:20;;;;;;;16.73;11.97;;;6.20;99.90;;;;;;5013605;28;20223;-63
2020/12/06 11:12:46;;;;;;;16.80;12.43;;;6.30;99.90;;;;;;5013391;28;20203;-63
2020/12/06 11:15:11;;;;;;;15.60;12.10;;;6.30;99.90;;;;;;5013006;28;20176;-63
2020/12/06 11:17:37;;;;;;;14.30;10.73;;;6.40;99.90;;;;;;5013332;28;20391;-63
2020/12/06 11:20:03;;;;;;;14.30;11.60;;;6.30;99.90;;;;;;5012634;28;20200;-63
2020/12/06 11:22:29;;;;;;;13.63;10.73;;;6.30;99.90;;;;;;5013357;28;20192;-63
2020/12/06 11:24:54;;;;;;;16.83;12.10;;;6.20;99.90;;;;;;5013968;28;20219;-63
2020/12/06 11:27:20;;;;;;;17.40;12.40;;;6.10;99.90;;;;;;5012516;28;20176;-63
2020/12/06 11:29:46;;;;;;;17.47;13.03;;;6.00;99.90;;;;;;5012477;28;20661;-63
2020/12/06 11:32:12;;;;;;;18.63;12.83;;;6.00;99.90;;;;;;5012881;28;20291;-62
2020/12/06 11:34:38;;;;;;;19.10;13.20;;;5.90;99.90;;;;;;5012862;28;20176;-63
2020/12/06 11:37:03;;;;;;;20.43;14.27;;;5.90;99.90;;;;;;5013329;28;20169;-63
2020/12/06 11:39:29;;;;;;;23.13;13.10;;;5.80;99.90;;;;;;5013037;28;20227;-63
2020/12/06 11:41:56;;;;;;;20.60;14.50;;;5.70;99.90;;;;;;5012479;28;20191;-63
2020/12/06 11:44:22;;;;;;;18.83;12.97;;;5.70;99.90;;;;;;5013139;28;20660;-63
2020/12/06 11:46:48;;;;;;;18.27;12.70;;;5.70;99.90;;;;;;5012822;28;20175;-63
2020/12/06 11:49:13;;;;;;;21.87;14.47;;;5.60;99.90;;;;;;5013605;28;20215;-63
2020/12/06 11:51:39;;;;;;;21.80;14.87;;;5.50;99.90;;;;;;5012739;28;20732;-63
2020/12/06 11:54:05;;;;;;;22.23;14.40;;;5.50;99.90;;;;;;5012721;28;20203;-63
2020/12/06 11:56:30;;;;;;;20.30;14.13;;;5.40;99.90;;;;;;5013117;28;20176;-63
2020/12/06 11:58:56;;;;;;;25.33;16.07;;;5.50;99.90;;;;;;5012717;28;20208;-63
2020/12/06 12:01:22;;;;;;;19.77;13.80;;;5.50;99.90;;;;;;5012511;28;20179;-63
2020/12/06 12:03:47;;;;;;;22.43;15.87;;;5.50;99.90;;;;;;5011638;28;20180;-64
2020/12/06 12:06:13;;;;;;;24.33;15.63;;;5.50;99.90;;;;;;5012890;28;20172;-63
2020/12/06 12:08:38;;;;;;;24.87;15.90;;;5.50;99.90;;;;;;5012450;28;20309;-63
2020/12/06 12:11:09;;;;;;;24.30;15.60;;;5.40;99.90;;;;;;5012163;28;20187;-63
2020/12/06 12:13:39;;;;;;;27.17;18.00;;;5.40;99.90;;;;;;5012590;28;20211;-64
2020/12/06 12:16:06;;;;;;;22.97;15.60;;;5.50;99.90;;;;;;5013042;28;20528;-63
2020/12/06 12:18:31;;;;;;;25.70;16.90;;;5.50;99.90;;;;;;5013681;28;20657;-63
2020/12/06 12:20:57;;;;;;;22.87;16.17;;;5.50;99.90;;;;;;5011884;28;20235;-64
2020/12/06 12:23:22;;;;;;;27.13;16.83;;;5.50;99.90;;;;;;5012359;28;20207;-63
2020/12/06 12:25:48;;;;;;;21.30;15.93;;;5.40;99.90;;;;;;5012210;28;20283;-63
2020/12/06 12:28:14;;;;;;;26.33;17.03;;;5.40;99.90;;;;;;5012700;28;20203;-64
2020/12/06 12:30:40;;;;;;;22.73;16.50;;;5.30;99.90;;;;;;5025109;28;20669;-64
2020/12/06 12:33:06;;;;;;;27.60;16.63;;;5.30;99.90;;;;;;5021389;28;20204;-63
2020/12/06 12:35:31;;;;;;;27.37;17.13;;;5.30;99.90;;;;;;5012312;28;20168;-64